Time;durP1;ratioP1;P1;durP2;ratioP2;P2;SDS_P1;SDS_P2;PMS_P1;PMS_P2;Temp;Humidity;BMP_temperature;BMP_pressure;BME280_temperature;BME280_humidity;BME280_pressure;Samples;Min_cycle;Max_cycle;Signal;HPM_P1;HPM_P2
2021/07/01 00:01:54;;;;;;;10.68;4.78;;;19.10;73.40;;;;;;5078831;28;20086;-74
2021/07/01 00:04:21;;;;;;;9.60;4.38;;;19.10;73.40;;;;;;5081087;28;20075;-73
2021/07/01 00:06:48;;;;;;;7.63;4.43;;;19.00;73.40;;;;;;5099244;28;20059;-73
2021/07/01 00:09:15;;;;;;;9.20;4.80;;;19.10;73.40;;;;;;5098622;28;20342;-73
2021/07/01 00:11:46;;;;;;;6.93;4.20;;;19.10;73.40;;;;;;5098619;28;20056;-73
2021/07/01 00:14:13;;;;;;;8.75;5.32;;;19.00;73.30;;;;;;5099102;28;20127;-73
2021/07/01 00:16:39;;;;;;;8.77;4.65;;;19.00;73.40;;;;;;5099008;28;20076;-73
2021/07/01 00:19:06;;;;;;;7.63;4.40;;;19.00;73.40;;;;;;5095969;28;20075;-73
2021/07/01 00:21:32;;;;;;;11.73;5.25;;;19.00;73.40;;;;;;5077980;28;20056;-73
2021/07/01 00:23:58;;;;;;;8.35;4.53;;;19.00;73.40;;;;;;5078576;28;20044;-73
2021/07/01 00:26:24;;;;;;;9.05;5.07;;;19.00;73.40;;;;;;5078051;28;20182;-73
2021/07/01 00:28:49;;;;;;;9.35;4.72;;;19.00;73.50;;;;;;5082861;28;20131;-73
2021/07/01 00:31:15;;;;;;;9.93;5.15;;;19.00;73.50;;;;;;5098829;28;20457;-73
2021/07/01 00:33:41;;;;;;;9.85;5.18;;;19.00;73.50;;;;;;5098535;28;20044;-73
2021/07/01 00:36:08;;;;;;;8.65;4.68;;;19.00;73.50;;;;;;5090856;28;20056;-72
2021/07/01 00:38:34;;;;;;;10.55;4.68;;;19.00;73.50;;;;;;5078367;28;20398;-73
2021/07/01 00:40:59;;;;;;;8.10;4.85;;;19.00;73.50;;;;;;5078347;28;20128;-73
2021/07/01 00:43:25;;;;;;;10.77;5.07;;;18.90;73.50;;;;;;5085588;28;20363;-73
2021/07/01 00:45:52;;;;;;;10.88;4.15;;;18.90;73.50;;;;;;5098366;28;20097;-73
2021/07/01 00:48:18;;;;;;;10.10;5.07;;;19.00;73.50;;;;;;5098100;28;20058;-73
2021/07/01 00:50:45;;;;;;;7.47;4.53;;;19.00;73.50;;;;;;5098284;28;20135;-73
2021/07/01 00:53:11;;;;;;;9.68;4.88;;;19.00;73.50;;;;;;5093063;28;20478;-73
2021/07/01 00:55:38;;;;;;;8.90;4.93;;;18.90;73.50;;;;;;5093683;28;20058;-73
2021/07/01 00:58:06;;;;;;;9.40;4.97;;;19.00;73.50;;;;;;5077787;28;20048;-73
2021/07/01 01:03:18;;;;;;;6.97;4.93;;;19.00;73.50;;;;;;5077598;28;20051;-73
2021/07/01 01:05:44;;;;;;;8.88;4.82;;;18.90;73.50;;;;;;5077538;28;20074;-73
2021/07/01 01:08:10;;;;;;;7.32;4.53;;;18.90;73.50;;;;;;5094428;28;20044;-73
2021/07/01 01:10:37;;;;;;;10.73;4.70;;;18.90;73.50;;;;;;5076155;28;20475;-73
2021/07/01 01:13:03;;;;;;;9.55;5.10;;;18.90;73.40;;;;;;5077037;28;20078;-74
2021/07/01 01:15:29;;;;;;;11.05;5.05;;;18.90;73.50;;;;;;5078325;28;20109;-73
2021/07/01 01:17:55;;;;;;;9.60;4.53;;;18.90;73.40;;;;;;5077255;28;20056;-73
2021/07/01 01:20:21;;;;;;;7.80;4.55;;;18.90;73.50;;;;;;5077496;28;20045;-73
2021/07/01 01:22:47;;;;;;;8.27;4.72;;;18.90;73.50;;;;;;5084663;28;20043;-73
2021/07/01 01:25:13;;;;;;;10.20;5.15;;;18.90;73.50;;;;;;5097605;28;20105;-73
2021/07/01 01:27:39;;;;;;;8.13;4.57;;;18.90;73.60;;;;;;5098162;28;20118;-73
2021/07/01 01:30:06;;;;;;;7.03;4.30;;;18.90;73.60;;;;;;5098099;28;20109;-73
2021/07/01 01:32:33;;;;;;;8.82;4.88;;;18.90;73.60;;;;;;5097586;28;20040;-73
2021/07/01 01:34:58;;;;;;;9.93;5.28;;;18.90;73.60;;;;;;5097245;28;20072;-73
2021/07/01 01:37:25;;;;;;;8.38;4.75;;;18.90;73.60;;;;;;5086099;28;20439;-73
2021/07/01 01:39:51;;;;;;;10.50;5.03;;;18.90;73.60;;;;;;5077243;28;20055;-73
2021/07/01 01:42:17;;;;;;;8.98;4.75;;;18.90;73.60;;;;;;5077106;28;20060;-73
2021/07/01 01:44:43;;;;;;;9.68;4.72;;;18.90;73.60;;;;;;5077463;28;20496;-73
2021/07/01 01:47:20;;;;;;;8.75;4.82;;;18.90;73.60;;;;;;5077093;28;20040;-73
2021/07/01 01:49:47;;;;;;;9.90;5.60;;;18.90;73.60;;;;;;5076723;28;20040;-72
2021/07/01 01:52:13;;;;;;;9.85;5.20;;;18.90;73.60;;;;;;5076827;28;20359;-73
2021/07/01 01:54:40;;;;;;;12.88;6.20;;;18.90;73.70;;;;;;5088650;28;20058;-73
2021/07/01 01:57:06;;;;;;;10.27;5.25;;;18.90;73.70;;;;;;5096947;28;20080;-73
2021/07/01 01:59:36;;;;;;;10.13;5.00;;;18.90;73.70;;;;;;5097198;28;20081;-73
2021/07/01 02:02:02;;;;;;;9.52;4.80;;;18.90;73.70;;;;;;5096922;28;20205;-73
2021/07/01 02:04:28;;;;;;;9.77;5.57;;;18.90;73.70;;;;;;5097024;28;20040;-73
2021/07/01 02:06:55;;;;;;;11.55;4.97;;;18.90;73.70;;;;;;5096370;28;20040;-74
2021/07/01 02:09:21;;;;;;;10.10;5.32;;;18.90;73.70;;;;;;5097027;28;20040;-73
2021/07/01 02:11:48;;;;;;;7.65;5.40;;;18.90;73.80;;;;;;5096740;28;20066;-73
2021/07/01 02:14:16;;;;;;;8.45;5.00;;;18.80;73.70;;;;;;5094883;28;20052;-73
2021/07/01 02:16:41;;;;;;;8.70;5.05;;;18.90;73.80;;;;;;5096762;28;20044;-73
2021/07/01 02:19:07;;;;;;;9.35;5.72;;;18.90;73.80;;;;;;5096257;28;20135;-73
2021/07/01 02:21:34;;;;;;;8.75;5.35;;;18.80;73.70;;;;;;5078392;28;20477;-73
2021/07/01 02:23:59;;;;;;;9.02;5.57;;;18.90;73.80;;;;;;5076007;28;20064;-73
2021/07/01 02:26:25;;;;;;;12.18;5.00;;;18.90;73.80;;;;;;5076046;28;20064;-73
2021/07/01 02:28:51;;;;;;;9.23;6.05;;;18.80;73.70;;;;;;5085223;28;20040;-73
2021/07/01 02:31:17;;;;;;;8.45;5.32;;;18.90;73.80;;;;;;5096501;28;20040;-74
2021/07/01 02:33:42;;;;;;;14.00;5.97;;;18.80;73.80;;;;;;5095914;28;20457;-73
2021/07/01 02:36:08;;;;;;;9.35;5.68;;;18.80;73.80;;;;;;5096189;28;20414;-73
2021/07/01 02:38:35;;;;;;;11.20;5.88;;;18.80;73.80;;;;;;5096389;28;20094;-74
2021/07/01 02:41:01;;;;;;;8.27;5.43;;;18.80;73.80;;;;;;5095612;28;20052;-73
2021/07/01 02:43:27;;;;;;;9.98;6.35;;;18.80;73.80;;;;;;5095594;28;20123;-73
2021/07/01 02:45:53;;;;;;;9.10;4.97;;;18.80;73.80;;;;;;5095689;28;20097;-73
2021/07/01 02:48:18;;;;;;;9.20;5.78;;;18.80;73.80;;;;;;5090039;28;20053;-73
2021/07/01 02:50:45;;;;;;;9.98;5.40;;;18.80;73.80;;;;;;5075524;28;20045;-73
2021/07/01 02:53:11;;;;;;;8.40;5.60;;;18.80;73.80;;;;;;5075575;28;20498;-74
2021/07/01 02:55:36;;;;;;;8.95;5.60;;;18.80;73.80;;;;;;5075546;28;20102;-73
2021/07/01 02:58:03;;;;;;;10.55;5.57;;;18.80;73.80;;;;;;5075452;28;20344;-73
2021/07/01 03:00:28;;;;;;;8.45;5.32;;;18.80;73.80;;;;;;5075612;28;20071;-73
2021/07/01 03:02:54;;;;;;;11.75;6.28;;;18.80;73.80;;;;;;5076370;28;20083;-73
2021/07/01 03:05:20;;;;;;;8.43;5.25;;;18.80;73.90;;;;;;5075431;28;20105;-73
2021/07/01 03:07:46;;;;;;;9.77;5.68;;;18.80;74.40;;;;;;5076154;28;20037;-73
2021/07/01 03:10:12;;;;;;;7.53;5.57;;;18.80;73.80;;;;;;5075500;28;20064;-73
2021/07/01 03:12:38;;;;;;;11.43;5.80;;;18.80;73.80;;;;;;5076796;28;20043;-74
2021/07/01 03:15:04;;;;;;;9.20;5.95;;;18.80;73.80;;;;;;5096065;28;20036;-73
2021/07/01 03:17:30;;;;;;;10.38;5.57;;;18.90;73.90;;;;;;5095061;28;20048;-73
2021/07/01 03:19:56;;;;;;;11.60;5.55;;;18.80;73.90;;;;;;5095553;28;20055;-73
2021/07/01 03:22:22;;;;;;;12.85;6.43;;;18.80;73.90;;;;;;5095519;28;20044;-73
2021/07/01 03:24:48;;;;;;;8.63;5.40;;;18.80;73.90;;;;;;5084639;28;20048;-73
2021/07/01 03:27:14;;;;;;;10.25;6.80;;;18.80;73.90;;;;;;5074965;28;20051;-73
2021/07/01 03:29:39;;;;;;;10.07;6.05;;;18.80;73.90;;;;;;5075358;28;20052;-73
2021/07/01 03:32:06;;;;;;;10.07;6.03;;;18.80;73.90;;;;;;5075280;28;20340;-73
2021/07/01 03:34:33;;;;;;;8.80;5.47;;;18.80;73.90;;;;;;5075314;28;20048;-73
2021/07/01 03:36:59;;;;;;;9.55;5.97;;;18.80;73.90;;;;;;5075259;28;20040;-73
2021/07/01 03:39:32;;;;;;;8.90;5.68;;;18.80;73.90;;;;;;5075459;28;20348;-72
2021/07/01 03:41:58;;;;;;;9.95;5.75;;;18.80;73.90;;;;;;5075050;28;20053;-73
2021/07/01 03:44:24;;;;;;;11.48;6.82;;;18.80;73.90;;;;;;5075290;28;20036;-73
2021/07/01 03:46:50;;;;;;;10.43;6.15;;;18.80;73.90;;;;;;5075052;28;20044;-73
2021/07/01 03:49:16;;;;;;;8.35;6.28;;;18.80;73.90;;;;;;5085099;28;20115;-73
2021/07/01 03:51:42;;;;;;;9.85;5.63;;;18.80;73.90;;;;;;5093981;28;20043;-73
2021/07/01 03:54:07;;;;;;;9.55;5.95;;;18.80;73.90;;;;;;5094595;28;20044;-73
2021/07/01 03:56:42;;;;;;;10.65;6.32;;;18.80;73.80;;;;;;5095041;28;20056;-73
2021/07/01 03:59:12;;;;;;;12.32;6.53;;;18.70;73.80;;;;;;5094983;28;20044;-74
2021/07/01 04:01:39;;;;;;;9.25;6.18;;;18.80;73.90;;;;;;5095305;28;20051;-73
2021/07/01 04:04:06;;;;;;;9.80;6.35;;;18.80;73.90;;;;;;5095231;28;20122;-73
2021/07/01 04:06:33;;;;;;;11.20;6.72;;;18.80;73.90;;;;;;5095213;28;20126;-73
2021/07/01 04:08:59;;;;;;;12.70;6.30;;;18.70;73.90;;;;;;5090634;28;20078;-73
2021/07/01 04:11:26;;;;;;;11.43;7.05;;;18.80;73.90;;;;;;5074253;28;20087;-73
2021/07/01 04:13:52;;;;;;;11.63;6.80;;;18.70;73.90;;;;;;5074716;28;20460;-73
2021/07/01 04:16:18;;;;;;;11.88;6.65;;;18.70;73.90;;;;;;5074718;28;20037;-73
2021/07/01 04:18:44;;;;;;;10.73;6.35;;;18.70;73.90;;;;;;5074558;28;20055;-74
2021/07/01 04:21:10;;;;;;;10.57;6.82;;;18.70;73.90;;;;;;5074811;28;20568;-73
2021/07/01 04:23:36;;;;;;;12.95;6.57;;;18.70;73.90;;;;;;5074663;28;20049;-73
2021/07/01 04:26:01;;;;;;;11.07;6.65;;;18.70;73.90;;;;;;5095262;28;20044;-73
2021/07/01 04:28:27;;;;;;;11.77;6.72;;;18.70;73.90;;;;;;5078193;28;20048;-73
2021/07/01 04:30:53;;;;;;;9.95;6.80;;;18.70;73.90;;;;;;5074306;28;20048;-73
2021/07/01 04:33:19;;;;;;;11.85;6.78;;;18.70;73.90;;;;;;5074752;28;20102;-73
2021/07/01 04:35:48;;;;;;;10.88;6.93;;;18.70;74.00;;;;;;5074393;28;20059;-73
2021/07/01 04:38:18;;;;;;;12.43;6.70;;;18.70;74.00;;;;;;5074744;28;20056;-73
2021/07/01 04:40:45;;;;;;;14.88;7.43;;;18.70;74.00;;;;;;5074450;28;20052;-73
2021/07/01 04:43:11;;;;;;;10.55;6.75;;;18.70;73.90;;;;;;5074594;28;20072;-73
2021/07/01 04:45:37;;;;;;;12.30;6.85;;;18.70;73.90;;;;;;5082743;28;20044;-73
2021/07/01 04:48:05;;;;;;;9.57;6.72;;;18.70;73.90;;;;;;5089488;28;20047;-74
2021/07/01 04:50:34;;;;;;;13.43;7.07;;;18.70;74.00;;;;;;5091641;28;20044;-73
2021/07/01 04:53:00;;;;;;;10.98;7.18;;;18.70;74.00;;;;;;5093202;28;20061;-72
2021/07/01 04:55:26;;;;;;;10.57;6.97;;;18.70;74.00;;;;;;5082293;28;20076;-73
2021/07/01 04:57:52;;;;;;;10.98;6.68;;;18.70;74.00;;;;;;5083832;28;20035;-74
2021/07/01 05:00:18;;;;;;;12.18;6.85;;;18.70;74.00;;;;;;5090322;28;20039;-76
2021/07/01 05:02:43;;;;;;;12.63;6.88;;;18.70;74.10;;;;;;5112681;28;20048;-75
2021/07/01 05:05:10;;;;;;;15.88;7.57;;;18.70;74.20;;;;;;5087196;28;20351;-77
2021/07/01 05:07:46;;;;;;;11.18;6.68;;;18.70;74.30;;;;;;5083807;28;20051;-75
2021/07/01 05:10:14;;;;;;;13.95;6.88;;;18.70;74.40;;;;;;5082401;28;20068;-71
2021/07/01 05:12:40;;;;;;;10.27;7.30;;;18.70;74.50;;;;;;5085282;28;20382;-74
2021/07/01 05:15:07;;;;;;;12.90;7.10;;;18.70;74.60;;;;;;5082733;28;20055;-73
2021/07/01 05:17:34;;;;;;;14.05;7.32;;;18.70;74.70;;;;;;5084521;28;20402;-74
2021/07/01 05:20:02;;;;;;;21.52;8.65;;;18.70;74.80;;;;;;5083496;28;20501;-74
2021/07/01 05:22:30;;;;;;;17.63;8.93;;;18.70;74.90;;;;;;5077739;28;20083;-73
2021/07/01 05:24:55;;;;;;;15.73;8.65;;;18.70;74.70;;;;;;5076938;28;20068;-72
2021/07/01 05:27:21;;;;;;;14.95;8.52;;;18.80;74.70;;;;;;5087718;28;20112;-73
2021/07/01 05:29:47;;;;;;;19.92;9.80;;;18.80;74.70;;;;;;5091734;28;20032;-72
2021/07/01 05:32:13;;;;;;;18.80;9.05;;;18.80;74.80;;;;;;5080325;28;20091;-72
2021/07/01 05:34:40;;;;;;;20.75;10.20;;;18.80;74.70;;;;;;5082621;28;20173;-71
2021/07/01 05:37:06;;;;;;;18.55;9.63;;;18.80;75.00;;;;;;5076672;28;20055;-72
2021/07/01 05:39:31;;;;;;;20.45;9.68;;;18.80;75.00;;;;;;5082798;28;20048;-71
2021/07/01 05:41:58;;;;;;;15.45;9.07;;;18.80;75.00;;;;;;5077235;28;20159;-73
2021/07/01 05:44:24;;;;;;;17.70;9.80;;;18.80;75.00;;;;;;5095280;28;20469;-74
2021/07/01 05:46:49;;;;;;;18.02;9.88;;;18.90;75.40;;;;;;5097290;28;20044;-74
2021/07/01 05:49:19;;;;;;;17.98;10.32;;;18.80;75.90;;;;;;5094038;28;20054;-75
2021/07/01 05:51:47;;;;;;;20.90;9.07;;;18.80;76.20;;;;;;5095818;28;20048;-74
2021/07/01 05:54:26;;;;;;;27.85;10.88;;;18.80;76.30;;;;;;5096650;28;20044;-73
2021/07/01 05:56:52;;;;;;;19.23;9.95;;;18.80;76.60;;;;;;5084872;28;20049;-78
2021/07/01 05:59:20;;;;;;;20.05;10.07;;;18.80;76.70;;;;;;5076503;28;20044;-74
2021/07/01 06:01:46;;;;;;;16.25;9.95;;;18.80;76.70;;;;;;5085706;28;20119;-74
2021/07/01 06:04:12;;;;;;;26.95;10.73;;;18.80;76.70;;;;;;5094892;28;20036;-74
2021/07/01 06:06:43;;;;;;;22.30;12.48;;;18.90;77.40;;;;;;5078642;28;20045;-76
2021/07/01 06:09:09;;;;;;;18.70;11.90;;;18.90;77.20;;;;;;5077306;28;20041;-70
2021/07/01 06:11:36;;;;;;;23.77;11.98;;;19.00;76.90;;;;;;5080897;28;20071;-74
2021/07/01 06:14:05;;;;;;;27.63;11.63;;;18.90;76.70;;;;;;5076391;28;20332;-71
2021/07/01 06:16:33;;;;;;;22.05;12.23;;;18.90;76.60;;;;;;5089112;28;20055;-74
2021/07/01 06:19:01;;;;;;;26.40;13.23;;;18.90;77.10;;;;;;5081510;28;20455;-77
2021/07/01 06:21:28;;;;;;;19.45;12.40;;;19.00;76.90;;;;;;5079600;28;20041;-76
2021/07/01 06:23:56;;;;;;;22.40;12.30;;;19.00;76.60;;;;;;5089505;28;20049;-75
2021/07/01 06:26:28;;;;;;;24.58;13.05;;;18.90;76.40;;;;;;5076463;28;20068;-75
2021/07/01 06:28:55;;;;;;;20.27;12.40;;;18.90;76.50;;;;;;5075473;28;20052;-77
2021/07/01 06:31:22;;;;;;;21.45;12.63;;;18.80;76.50;;;;;;5075273;28;20052;-75
2021/07/01 06:33:49;;;;;;;19.00;11.88;;;18.90;77.20;;;;;;5081062;28;20044;-75
2021/07/01 06:36:19;;;;;;;21.58;13.50;;;18.90;76.50;;;;;;5096189;28;20432;-74
2021/07/01 06:38:52;;;;;;;23.30;12.13;;;18.90;76.50;;;;;;5096020;28;20115;-72
2021/07/01 06:41:20;;;;;;;19.45;12.00;;;18.90;76.50;;;;;;5094866;28;20394;-76
2021/07/01 06:43:48;;;;;;;18.02;10.20;;;18.80;76.50;;;;;;5089501;28;20064;-76
2021/07/01 06:46:16;;;;;;;21.15;12.13;;;18.90;76.70;;;;;;5075532;28;20505;-76
2021/07/01 06:48:45;;;;;;;23.75;13.25;;;18.90;76.50;;;;;;5075902;28;20044;-75
2021/07/01 06:51:12;;;;;;;23.80;12.85;;;18.90;76.90;;;;;;5082119;28;20090;-74
2021/07/01 06:53:40;;;;;;;21.02;12.20;;;18.90;76.40;;;;;;5094473;28;20103;-74
2021/07/01 06:56:07;;;;;;;22.70;13.48;;;18.80;76.10;;;;;;5096005;28;20132;-74
2021/07/01 06:58:33;;;;;;;18.83;12.65;;;18.90;75.90;;;;;;5094852;28;20055;-74
2021/07/01 07:00:59;;;;;;;20.90;13.00;;;18.80;75.80;;;;;;5075539;28;20532;-75
2021/07/01 07:03:26;;;;;;;19.60;12.98;;;18.80;75.70;;;;;;5075478;28;20048;-74
2021/07/01 07:05:54;;;;;;;22.00;12.77;;;18.80;75.80;;;;;;5075332;28;20455;-76
2021/07/01 07:08:21;;;;;;;17.42;13.00;;;18.80;75.80;;;;;;5092382;28;20128;-74
2021/07/01 07:10:48;;;;;;;21.05;13.40;;;18.80;75.80;;;;;;5095147;28;20051;-75
2021/07/01 07:13:15;;;;;;;19.23;13.43;;;18.80;75.90;;;;;;5094767;28;20342;-74
2021/07/01 07:15:42;;;;;;;27.73;13.52;;;18.80;76.60;;;;;;5088737;28;20051;-74
2021/07/01 07:18:24;;;;;;;22.33;12.98;;;18.70;76.00;;;;;;5075345;28;20056;-75
2021/07/01 07:20:59;;;;;;;21.00;13.48;;;18.80;76.10;;;;;;5079356;28;20086;-75
2021/07/01 07:23:32;;;;;;;21.92;13.75;;;18.80;75.90;;;;;;5093460;28;20081;-75
2021/07/01 07:26:07;;;;;;;19.42;12.70;;;18.80;76.00;;;;;;5095198;28;20461;-75
2021/07/01 07:28:38;;;;;;;21.60;13.15;;;18.80;76.10;;;;;;5111138;28;20036;-75
2021/07/01 07:31:05;;;;;;;21.85;12.48;;;18.90;76.20;;;;;;5095080;28;20047;-75
2021/07/01 07:33:31;;;;;;;24.33;12.20;;;18.80;76.10;;;;;;5094952;28;20058;-75
2021/07/01 07:35:57;;;;;;;22.67;13.20;;;18.90;76.20;;;;;;5076721;28;20048;-75
2021/07/01 07:38:27;;;;;;;22.98;13.00;;;18.90;76.30;;;;;;5109412;28;20149;-75
2021/07/01 07:40:54;;;;;;;22.63;12.60;;;18.90;76.20;;;;;;5095048;28;20093;-75
2021/07/01 07:43:21;;;;;;;20.08;13.57;;;18.80;76.30;;;;;;5095213;28;20085;-74
2021/07/01 07:45:49;;;;;;;24.38;12.80;;;18.80;76.30;;;;;;5094751;28;20534;-75
2021/07/01 07:48:15;;;;;;;20.77;13.10;;;18.90;76.50;;;;;;5095451;28;20055;-76
2021/07/01 07:50:44;;;;;;;27.08;13.48;;;18.80;76.50;;;;;;5094967;28;20052;-75
2021/07/01 07:53:18;;;;;;;21.08;12.60;;;18.90;76.40;;;;;;5083496;28;20060;-74
2021/07/01 07:55:45;;;;;;;;;;;18.90;76.50;;;;;;5075253;28;20481;-75
2021/07/01 07:58:13;;;;;;;20.98;13.85;;;18.80;76.40;;;;;;5073647;28;20284;-74
2021/07/01 08:00:40;;;;;;;22.50;13.38;;;18.90;76.60;;;;;;5074583;28;20055;-74
2021/07/01 08:03:07;;;;;;;23.80;13.75;;;18.90;76.50;;;;;;5091225;28;20036;-74
2021/07/01 08:05:33;;;;;;;26.10;13.45;;;18.90;76.70;;;;;;5093422;28;20051;-73
2021/07/01 08:08:00;;;;;;;19.52;13.07;;;18.90;76.80;;;;;;5095132;28;20040;-73
2021/07/01 08:10:32;;;;;;;19.67;12.80;;;18.90;76.60;;;;;;5094621;28;20048;-74
2021/07/01 08:13:07;;;;;;;23.95;12.93;;;18.90;77.00;;;;;;5094705;28;20044;-74
2021/07/01 08:15:36;;;;;;;23.75;11.70;;;18.90;76.30;;;;;;5092751;28;20074;-73
2021/07/01 08:18:03;;;;;;;21.13;12.18;;;18.90;76.50;;;;;;5093990;28;20047;-74
2021/07/01 08:20:30;;;;;;;20.08;11.82;;;18.90;76.60;;;;;;5095762;28;20040;-74
2021/07/01 08:22:56;;;;;;;19.67;11.40;;;19.00;76.60;;;;;;5098433;28;20140;-74
2021/07/01 08:25:25;;;;;;;22.00;12.40;;;19.00;76.60;;;;;;5098546;28;20055;-74
2021/07/01 08:27:53;;;;;;;18.58;12.10;;;19.00;76.60;;;;;;5098213;28;20462;-74
2021/07/01 08:30:23;;;;;;;18.98;11.70;;;19.10;76.60;;;;;;5097644;28;20044;-74
2021/07/01 08:32:58;;;;;;;18.35;11.63;;;19.10;76.60;;;;;;5078107;28;20446;-74
2021/07/01 08:35:25;;;;;;;16.25;10.93;;;19.10;76.50;;;;;;5078243;28;20040;-74
2021/07/01 08:37:56;;;;;;;17.42;11.20;;;19.10;76.50;;;;;;5076658;28;20052;-73
2021/07/01 08:40:32;;;;;;;18.23;11.20;;;19.20;76.50;;;;;;5078159;28;20048;-74
2021/07/01 08:42:59;;;;;;;15.93;10.55;;;19.20;76.50;;;;;;5077978;28;20329;-75
2021/07/01 08:45:56;;;;;;;17.70;11.68;;;19.20;76.40;;;;;;5078178;28;20049;-75
2021/07/01 08:48:24;;;;;;;19.52;11.35;;;19.20;76.40;;;;;;5077482;28;20127;-74
2021/07/01 08:50:56;;;;;;;17.92;10.82;;;19.20;76.40;;;;;;5081448;28;20044;-75
2021/07/01 08:54:06;;;;;;;16.50;9.98;;;19.20;76.40;;;;;;5097959;28;20068;-75
2021/07/01 08:56:35;;;;;;;16.63;10.35;;;19.30;76.30;;;;;;5098178;28;20067;-74
2021/07/01 08:59:08;;;;;;;15.13;10.15;;;19.30;76.30;;;;;;5098188;28;20127;-74
2021/07/01 09:01:39;;;;;;;11.18;9.10;;;19.30;76.10;;;;;;5097360;28;20067;-74
2021/07/01 09:04:10;;;;;;;14.70;10.50;;;19.30;76.10;;;;;;5097413;28;20059;-74
2021/07/01 09:06:37;;;;;;;14.10;9.25;;;19.30;76.10;;;;;;5098676;28;20051;-74
2021/07/01 09:09:11;;;;;;;13.40;10.45;;;19.30;76.10;;;;;;5097715;28;20048;-75
2021/07/01 09:11:39;;;;;;;17.25;9.60;;;19.40;76.10;;;;;;5098090;28;20117;-75
2021/07/01 09:14:07;;;;;;;14.00;9.90;;;19.40;76.10;;;;;;5082735;28;20047;-74
2021/07/01 09:16:35;;;;;;;12.35;9.23;;;19.30;76.00;;;;;;5077629;28;20055;-75
2021/07/01 09:19:01;;;;;;;13.68;9.18;;;19.40;76.00;;;;;;5077610;28;20045;-74
2021/07/01 09:21:28;;;;;;;13.90;9.80;;;19.40;76.00;;;;;;5077333;28;20352;-75
2021/07/01 09:23:54;;;;;;;14.00;10.25;;;19.40;76.00;;;;;;5078386;28;20056;-75
2021/07/01 09:26:24;;;;;;;11.75;9.23;;;19.40;76.00;;;;;;5077011;28;20110;-74
2021/07/01 09:28:51;;;;;;;14.80;9.88;;;19.50;76.00;;;;;;5077143;28;20347;-74
2021/07/01 09:31:19;;;;;;;12.73;9.30;;;19.40;75.90;;;;;;5076401;28;20040;-74
2021/07/01 09:33:50;;;;;;;14.02;10.13;;;19.50;76.00;;;;;;5076692;28;20037;-75
2021/07/01 09:36:20;;;;;;;14.35;9.77;;;19.50;76.00;;;;;;5077155;28;20044;-74
2021/07/01 09:38:47;;;;;;;16.42;10.80;;;19.50;76.00;;;;;;5086447;28;20048;-75
2021/07/01 09:41:14;;;;;;;16.13;10.30;;;19.60;76.20;;;;;;5079145;28;20044;-75
2021/07/01 09:43:42;;;;;;;14.35;10.60;;;19.60;76.40;;;;;;5077087;28;20119;-74
2021/07/01 09:46:12;;;;;;;18.33;10.70;;;19.60;76.40;;;;;;5077029;28;20098;-74
2021/07/01 09:48:48;;;;;;;19.90;10.52;;;19.50;76.40;;;;;;5077379;28;20139;-74
2021/07/01 09:51:14;;;;;;;22.35;10.70;;;19.60;76.50;;;;;;5077014;28;20076;-75
2021/07/01 09:53:41;;;;;;;19.85;11.75;;;19.50;76.30;;;;;;5076496;28;20410;-73
2021/07/01 09:56:09;;;;;;;26.77;12.40;;;19.50;76.30;;;;;;5076422;28;20057;-73
2021/07/01 09:58:48;;;;;;;20.40;12.30;;;19.50;76.40;;;;;;5087925;28;20067;-72
2021/07/01 10:01:25;;;;;;;19.83;12.65;;;19.60;76.50;;;;;;5091595;28;20498;-73
2021/07/01 10:04:00;;;;;;;20.38;13.23;;;19.60;76.60;;;;;;5075971;28;20483;-71
2021/07/01 10:06:27;;;;;;;23.05;13.15;;;19.50;76.70;;;;;;5076676;28;20040;-73
2021/07/01 10:08:53;;;;;;;24.73;12.40;;;19.60;77.10;;;;;;5076458;28;20048;-71
2021/07/01 10:11:52;;;;;;;20.80;12.27;;;19.50;77.10;;;;;;5075784;28;20060;-72
2021/07/01 10:14:19;;;;;;;23.42;13.55;;;19.50;77.40;;;;;;5053262;28;20057;-72
2021/07/01 10:16:45;;;;;;;18.83;13.10;;;19.50;77.50;;;;;;5075958;28;20071;-71
2021/07/01 10:19:19;;;;;;;20.83;13.15;;;19.50;77.60;;;;;;5075971;28;20087;-73
2021/07/01 10:21:45;;;;;;;23.98;13.38;;;19.50;77.70;;;;;;5096088;28;20482;-73
2021/07/01 10:24:19;;;;;;;19.70;12.70;;;19.50;78.00;;;;;;5096390;28;20051;-72
2021/07/01 10:26:50;;;;;;;19.05;11.73;;;19.60;78.30;;;;;;5095971;28;20118;-71
2021/07/01 10:29:18;;;;;;;19.33;12.23;;;19.60;78.10;;;;;;5096172;28;20124;-72
2021/07/01 10:31:54;;;;;;;18.55;13.00;;;19.60;78.10;;;;;;5096237;28;20051;-75
2021/07/01 10:34:20;;;;;;;21.75;13.60;;;19.60;78.00;;;;;;5096516;28;20040;-75
2021/07/01 10:36:46;;;;;;;20.15;13.32;;;19.60;78.00;;;;;;5096275;28;20477;-74
2021/07/01 10:39:12;;;;;;;17.98;12.50;;;19.60;78.10;;;;;;5095337;28;20056;-74
2021/07/01 10:41:42;;;;;;;21.95;12.27;;;19.60;78.10;;;;;;5077284;28;20110;-74
2021/07/01 10:44:21;;;;;;;17.05;11.77;;;19.60;78.00;;;;;;5076094;28;20048;-74
2021/07/01 10:46:48;;;;;;;18.30;12.13;;;19.60;77.90;;;;;;5075674;28;20040;-73
2021/07/01 10:49:16;;;;;;;19.95;12.55;;;19.70;78.00;;;;;;5075541;28;20424;-74
2021/07/01 10:51:55;;;;;;;17.60;12.00;;;19.70;77.90;;;;;;5075440;28;20121;-74
2021/07/01 10:54:21;;;;;;;20.17;12.75;;;19.70;77.90;;;;;;5084283;28;20044;-73
2021/07/01 10:56:52;;;;;;;17.70;11.88;;;19.70;77.80;;;;;;5095482;28;20439;-73
2021/07/01 10:59:18;;;;;;;18.65;10.65;;;19.70;77.80;;;;;;5096549;28;20063;-73
2021/07/01 11:01:45;;;;;;;18.27;12.05;;;19.70;77.70;;;;;;5094615;28;20051;-74
2021/07/01 11:04:16;;;;;;;16.25;11.55;;;19.70;77.70;;;;;;5095197;28;20118;-72
2021/07/01 11:06:45;;;;;;;13.68;11.45;;;19.70;77.70;;;;;;5095868;28;20075;-72
2021/07/01 11:09:14;;;;;;;15.73;11.55;;;19.70;77.70;;;;;;5078388;28;20062;-74
2021/07/01 11:11:42;;;;;;;16.80;11.82;;;19.70;77.60;;;;;;5075325;28;20052;-73
2021/07/01 11:14:10;;;;;;;17.27;11.80;;;19.70;77.80;;;;;;5075508;28;20041;-73
2021/07/01 11:16:47;;;;;;;15.82;11.75;;;19.70;77.80;;;;;;5094049;28;20134;-73
2021/07/01 11:19:15;;;;;;;17.00;10.95;;;19.70;77.70;;;;;;5095402;28;20054;-73
2021/07/01 11:21:53;;;;;;;18.70;11.02;;;19.70;77.70;;;;;;5082941;28;20044;-73
2021/07/01 11:24:24;;;;;;;17.85;11.88;;;19.70;77.60;;;;;;5091541;28;20458;-73
2021/07/01 11:26:58;;;;;;;16.33;11.80;;;19.80;77.70;;;;;;5095415;28;20047;-73
2021/07/01 11:29:37;;;;;;;;;;;19.70;77.60;;;;;;5094448;28;20051;-72
2021/07/01 11:32:16;;;;;;;19.85;13.52;;;19.70;77.40;;;;;;5095506;28;19924;-73
2021/07/01 11:34:46;;;;;;;17.40;12.05;;;19.70;77.80;;;;;;5095633;28;20113;-73
2021/07/01 11:37:13;;;;;;;17.95;13.07;;;19.70;77.80;;;;;;5084636;28;20052;-73
2021/07/01 11:39:40;;;;;;;21.10;12.85;;;19.80;77.90;;;;;;5074756;28;20438;-72
2021/07/01 11:42:06;;;;;;;20.60;13.38;;;19.80;78.00;;;;;;5074873;28;20106;-72
2021/07/01 11:44:40;;;;;;;21.83;14.10;;;19.80;78.10;;;;;;5074865;28;20463;-74
2021/07/01 11:47:08;;;;;;;22.95;14.43;;;19.80;78.20;;;;;;5076001;28;20055;-73
2021/07/01 11:49:35;;;;;;;22.08;14.25;;;19.80;78.30;;;;;;5074901;28;20120;-74
2021/07/01 11:52:02;;;;;;;19.58;13.60;;;19.80;78.20;;;;;;5074699;28;20060;-73
2021/07/01 11:54:28;;;;;;;19.05;13.85;;;19.80;78.20;;;;;;5074791;28;20060;-73
2021/07/01 11:56:59;;;;;;;21.55;13.75;;;19.80;78.20;;;;;;5078295;28;20067;-74
2021/07/01 11:59:28;;;;;;;17.88;13.80;;;19.80;78.20;;;;;;5078789;28;20421;-73
2021/07/01 12:01:55;;;;;;;18.45;12.60;;;19.80;78.30;;;;;;5081317;28;20214;-74
2021/07/01 12:04:32;;;;;;;17.98;13.20;;;19.80;78.10;;;;;;5079037;28;20052;-74
2021/07/01 12:07:00;;;;;;;17.55;12.82;;;19.80;78.00;;;;;;5078755;28;20044;-74
2021/07/01 12:09:27;;;;;;;18.27;12.88;;;19.80;78.00;;;;;;5078536;28;20036;-73
2021/07/01 12:12:10;;;;;;;16.25;12.27;;;19.80;78.00;;;;;;5079166;28;20210;-74
2021/07/01 12:15:00;;;;;;;15.88;11.77;;;19.80;77.80;;;;;;5078767;28;20076;-73
2021/07/01 12:17:52;;;;;;;16.30;11.30;;;19.80;77.90;;;;;;5092374;28;20059;-74
2021/07/01 12:20:36;;;;;;;15.57;11.10;;;19.80;77.70;;;;;;5099016;28;20354;-74
2021/07/01 12:23:03;;;;;;;17.42;11.70;;;19.80;77.70;;;;;;5098961;28;20427;-74
2021/07/01 12:25:29;;;;;;;13.88;11.02;;;19.80;77.80;;;;;;5098486;28;20093;-73
2021/07/01 12:28:10;;;;;;;18.77;12.50;;;19.80;77.80;;;;;;5085544;28;20056;-77
2021/07/01 12:31:01;;;;;;;18.48;12.30;;;19.80;77.80;;;;;;5078227;28;20044;-74
2021/07/01 12:33:45;;;;;;;17.13;12.05;;;19.80;77.80;;;;;;5082296;28;20044;-73
2021/07/01 12:36:20;;;;;;;13.95;10.93;;;19.80;77.90;;;;;;5098477;28;20048;-72
2021/07/01 12:39:12;;;;;;;16.60;11.10;;;19.90;77.90;;;;;;5098397;28;20044;-73
2021/07/01 12:41:52;;;;;;;14.10;10.63;;;19.80;77.70;;;;;;5088174;28;20244;-74
2021/07/01 12:44:22;;;;;;;15.02;10.75;;;19.90;77.80;;;;;;5098670;28;20105;-73
2021/07/01 12:46:48;;;;;;;16.48;10.90;;;19.80;77.80;;;;;;5098294;28;20048;-73